sensor_id;sensor_type;location;lat;lon;timestamp;pressure;altitude;pressure_sealevel;temperature;humidity
59939;BME280;45801;51.810;19.444;2023-02-27T00:00:54;99663.24;;;1.99;60.11
59939;BME280;45801;51.810;19.444;2023-02-27T00:03:26;99666.59;;;2.01;60.26
59939;BME280;45801;51.810;19.444;2023-02-27T00:05:53;99666.60;;;2.02;59.94
59939;BME280;45801;51.810;19.444;2023-02-27T00:08:22;99666.92;;;1.99;59.98
59939;BME280;45801;51.810;19.444;2023-02-27T00:10:48;99669.67;;;1.95;59.96
59939;BME280;45801;51.810;19.444;2023-02-27T00:13:16;99670.33;;;1.93;60.01
59939;BME280;45801;51.810;19.444;2023-02-27T00:15:47;99668.36;;;1.94;60.15
59939;BME280;45801;51.810;19.444;2023-02-27T00:18:15;99666.98;;;1.94;59.89
59939;BME280;45801;51.810;19.444;2023-02-27T00:20:41;99665.46;;;1.92;59.94
59939;BME280;45801;51.810;19.444;2023-02-27T00:23:08;99668.70;;;1.88;60.21
59939;BME280;45801;51.810;19.444;2023-02-27T00:25:36;99671.14;;;1.88;60.33
59939;BME280;45801;51.810;19.444;2023-02-27T00:28:02;99677.14;;;1.91;60.37
59939;BME280;45801;51.810;19.444;2023-02-27T00:30:30;99680.08;;;1.93;60.21
59939;BME280;45801;51.810;19.444;2023-02-27T00:32:59;99683.15;;;1.97;60.08
59939;BME280;45801;51.810;19.444;2023-02-27T00:35:26;99682.64;;;1.97;60.25
59939;BME280;45801;51.810;19.444;2023-02-27T00:37:53;99681.59;;;2.01;60.33
59939;BME280;45801;51.810;19.444;2023-02-27T00:40:19;99679.84;;;2.05;60.45
59939;BME280;45801;51.810;19.444;2023-02-27T00:42:46;99678.34;;;2.07;60.40
59939;BME280;45801;51.810;19.444;2023-02-27T00:45:14;99678.00;;;2.04;60.09
59939;BME280;45801;51.810;19.444;2023-02-27T00:47:41;99678.92;;;2.04;60.25
59939;BME280;45801;51.810;19.444;2023-02-27T00:50:09;99681.45;;;2.08;60.11
59939;BME280;45801;51.810;19.444;2023-02-27T00:52:36;99684.52;;;1.93;59.69
59939;BME280;45801;51.810;19.444;2023-02-27T00:55:03;99690.63;;;1.91;60.01
59939;BME280;45801;51.810;19.444;2023-02-27T00:57:30;99689.09;;;1.89;60.35
59939;BME280;45801;51.810;19.444;2023-02-27T00:59:56;99688.38;;;1.89;60.36
59939;BME280;45801;51.810;19.444;2023-02-27T01:02:23;99690.33;;;1.90;60.27
59939;BME280;45801;51.810;19.444;2023-02-27T01:04:50;99692.41;;;1.86;60.35
59939;BME280;45801;51.810;19.444;2023-02-27T01:07:16;99693.75;;;1.85;60.39
59939;BME280;45801;51.810;19.444;2023-02-27T01:09:43;99688.70;;;1.83;60.86
59939;BME280;45801;51.810;19.444;2023-02-27T01:12:10;99686.31;;;1.79;60.55
59939;BME280;45801;51.810;19.444;2023-02-27T01:14:36;99682.02;;;1.75;60.83
59939;BME280;45801;51.810;19.444;2023-02-27T01:17:03;99682.06;;;1.78;61.17
59939;BME280;45801;51.810;19.444;2023-02-27T01:19:30;99681.36;;;1.80;61.23
59939;BME280;45801;51.810;19.444;2023-02-27T01:21:57;99686.14;;;1.79;61.69
59939;BME280;45801;51.810;19.444;2023-02-27T01:24:23;99687.46;;;1.81;61.57
59939;BME280;45801;51.810;19.444;2023-02-27T01:26:50;99692.38;;;1.79;61.59
59939;BME280;45801;51.810;19.444;2023-02-27T01:29:18;99688.98;;;1.76;61.65
59939;BME280;45801;51.810;19.444;2023-02-27T01:31:45;99688.30;;;1.72;61.96
59939;BME280;45801;51.810;19.444;2023-02-27T01:34:17;99689.80;;;1.71;62.11
59939;BME280;45801;51.810;19.444;2023-02-27T01:36:44;99691.08;;;1.58;62.67
59939;BME280;45801;51.810;19.444;2023-02-27T01:39:11;99692.66;;;1.50;62.89
59939;BME280;45801;51.810;19.444;2023-02-27T01:41:37;99695.83;;;1.45;63.12
59939;BME280;45801;51.810;19.444;2023-02-27T01:44:07;99697.75;;;1.39;63.52
59939;BME280;45801;51.810;19.444;2023-02-27T01:46:34;99696.59;;;1.38;63.37
59939;BME280;45801;51.810;19.444;2023-02-27T01:49:20;99698.02;;;1.36;63.92
59939;BME280;45801;51.810;19.444;2023-02-27T01:51:53;99699.12;;;1.37;64.20
59939;BME280;45801;51.810;19.444;2023-02-27T01:54:23;99699.48;;;1.43;64.23
59939;BME280;45801;51.810;19.444;2023-02-27T01:56:51;99702.18;;;1.49;63.92
59939;BME280;45801;51.810;19.444;2023-02-27T01:59:18;99696.70;;;1.51;64.21
59939;BME280;45801;51.810;19.444;2023-02-27T02:01:47;99696.02;;;1.51;64.09
59939;BME280;45801;51.810;19.444;2023-02-27T02:04:23;99699.89;;;1.52;64.63
59939;BME280;45801;51.810;19.444;2023-02-27T02:06:56;99700.81;;;1.51;64.56
59939;BME280;45801;51.810;19.444;2023-02-27T02:09:26;99701.72;;;1.47;64.86
59939;BME280;45801;51.810;19.444;2023-02-27T02:11:56;99701.50;;;1.49;64.81
59939;BME280;45801;51.810;19.444;2023-02-27T02:14:22;99702.02;;;1.71;65.21
59939;BME280;45801;51.810;19.444;2023-02-27T02:17:11;99700.24;;;1.95;64.69
59939;BME280;45801;51.810;19.444;2023-02-27T02:36:33;99712.52;;;1.87;65.02
59939;BME280;45801;51.810;19.444;2023-02-27T02:41:57;99717.89;;;1.79;65.27
59939;BME280;45801;51.810;19.444;2023-02-27T02:44:48;99720.08;;;1.74;65.58
59939;BME280;45801;51.810;19.444;2023-02-27T02:50:15;99727.39;;;1.75;66.04
59939;BME280;45801;51.810;19.444;2023-02-27T02:53:09;99722.94;;;1.80;65.81
59939;BME280;45801;51.810;19.444;2023-02-27T02:55:58;99727.13;;;1.72;66.23
59939;BME280;45801;51.810;19.444;2023-02-27T03:08:52;99742.31;;;1.66;66.67
59939;BME280;45801;51.810;19.444;2023-02-27T03:11:22;99750.64;;;1.66;66.81
59939;BME280;45801;51.810;19.444;2023-02-27T03:13:54;99754.02;;;1.67;66.47
59939;BME280;45801;51.810;19.444;2023-02-27T03:16:25;99757.77;;;1.69;66.66
59939;BME280;45801;51.810;19.444;2023-02-27T03:18:57;99756.69;;;1.68;66.88
59939;BME280;45801;51.810;19.444;2023-02-27T03:21:34;99764.52;;;1.73;66.77
59939;BME280;45801;51.810;19.444;2023-02-27T03:24:06;99768.04;;;1.76;66.39
59939;BME280;45801;51.810;19.444;2023-02-27T03:26:36;99769.85;;;1.74;66.89
59939;BME280;45801;51.810;19.444;2023-02-27T03:29:10;99768.66;;;1.73;66.81
59939;BME280;45801;51.810;19.444;2023-02-27T03:31:45;99774.63;;;1.68;67.01
59939;BME280;45801;51.810;19.444;2023-02-27T03:34:33;99773.09;;;1.66;66.87
59939;BME280;45801;51.810;19.444;2023-02-27T03:39:52;99777.75;;;1.64;66.91
59939;BME280;45801;51.810;19.444;2023-02-27T03:42:31;99783.80;;;1.62;67.20
59939;BME280;45801;51.810;19.444;2023-02-27T03:45:22;99784.35;;;1.60;67.08
59939;BME280;45801;51.810;19.444;2023-02-27T03:47:53;99785.33;;;1.62;67.06
59939;BME280;45801;51.810;19.444;2023-02-27T03:50:20;99784.39;;;1.59;67.46
59939;BME280;45801;51.810;19.444;2023-02-27T03:52:46;99787.88;;;1.55;67.68
59939;BME280;45801;51.810;19.444;2023-02-27T03:55:17;99790.36;;;1.54;67.67
59939;BME280;45801;51.810;19.444;2023-02-27T03:57:47;99793.64;;;1.50;67.57
59939;BME280;45801;51.810;19.444;2023-02-27T04:00:18;99794.26;;;1.44;68.03
59939;BME280;45801;51.810;19.444;2023-02-27T04:02:48;99799.34;;;1.40;68.03
59939;BME280;45801;51.810;19.444;2023-02-27T04:05:18;99804.90;;;1.39;67.98
59939;BME280;45801;51.810;19.444;2023-02-27T04:10:32;99815.33;;;1.48;67.58
59939;BME280;45801;51.810;19.444;2023-02-27T04:24:33;99824.50;;;1.69;67.37
59939;BME280;45801;51.810;19.444;2023-02-27T04:27:18;99823.35;;;1.66;67.72
59939;BME280;45801;51.810;19.444;2023-02-27T04:30:15;99823.14;;;1.62;67.95
59939;BME280;45801;51.810;19.444;2023-02-27T04:35:45;99821.88;;;1.67;67.69
59939;BME280;45801;51.810;19.444;2023-02-27T04:40:54;99826.20;;;1.77;67.37
59939;BME280;45801;51.810;19.444;2023-02-27T04:43:23;99826.05;;;1.81;67.24
59939;BME280;45801;51.810;19.444;2023-02-27T04:45:53;99829.32;;;1.87;67.00
59939;BME280;45801;51.810;19.444;2023-02-27T04:48:25;99829.75;;;1.86;67.16
59939;BME280;45801;51.810;19.444;2023-02-27T04:51:16;99830.37;;;1.87;66.93
59939;BME280;45801;51.810;19.444;2023-02-27T04:53:55;99830.23;;;1.82;67.26
59939;BME280;45801;51.810;19.444;2023-02-27T04:56:27;99835.20;;;1.73;67.56
59939;BME280;45801;51.810;19.444;2023-02-27T04:59:01;99836.05;;;1.69;67.42
59939;BME280;45801;51.810;19.444;2023-02-27T05:01:53;99833.48;;;1.62;67.71
59939;BME280;45801;51.810;19.444;2023-02-27T05:04:24;99829.90;;;1.60;67.53
59939;BME280;45801;51.810;19.444;2023-02-27T05:06:53;99834.59;;;1.63;67.47
59939;BME280;45801;51.810;19.444;2023-02-27T05:09:25;99839.90;;;1.66;67.53
59939;BME280;45801;51.810;19.444;2023-02-27T05:11:59;99844.63;;;1.72;67.35
59939;BME280;45801;51.810;19.444;2023-02-27T05:14:41;99842.14;;;1.80;67.30
59939;BME280;45801;51.810;19.444;2023-02-27T05:17:14;99842.70;;;1.84;67.29
59939;BME280;45801;51.810;19.444;2023-02-27T05:19:43;99847.55;;;1.84;67.10
59939;BME280;45801;51.810;19.444;2023-02-27T05:22:21;99848.18;;;1.80;67.38
59939;BME280;45801;51.810;19.444;2023-02-27T05:25:14;99851.84;;;1.82;67.23
59939;BME280;45801;51.810;19.444;2023-02-27T05:30:37;99858.58;;;1.90;67.00
59939;BME280;45801;51.810;19.444;2023-02-27T05:33:17;99863.65;;;1.95;67.02
59939;BME280;45801;51.810;19.444;2023-02-27T05:35:53;99869.41;;;1.93;66.99
59939;BME280;45801;51.810;19.444;2023-02-27T05:38:44;99868.03;;;1.93;66.99
59939;BME280;45801;51.810;19.444;2023-02-27T05:41:18;99867.45;;;1.89;67.08
59939;BME280;45801;51.810;19.444;2023-02-27T05:43:49;99870.16;;;1.84;67.25
59939;BME280;45801;51.810;19.444;2023-02-27T05:46:38;99878.55;;;1.81;67.25
59939;BME280;45801;51.810;19.444;2023-02-27T05:49:25;99880.81;;;1.75;67.39
59939;BME280;45801;51.810;19.444;2023-02-27T05:51:54;99887.05;;;1.72;67.53
59939;BME280;45801;51.810;19.444;2023-02-27T05:54:31;99888.22;;;1.71;67.56
59939;BME280;45801;51.810;19.444;2023-02-27T05:57:00;99892.87;;;1.75;67.61
59939;BME280;45801;51.810;19.444;2023-02-27T05:59:53;99894.80;;;1.80;67.65
59939;BME280;45801;51.810;19.444;2023-02-27T06:02:20;99896.83;;;1.79;67.28
59939;BME280;45801;51.810;19.444;2023-02-27T06:04:47;99894.93;;;1.77;67.68
59939;BME280;45801;51.810;19.444;2023-02-27T06:07:14;99894.09;;;1.75;67.39
59939;BME280;45801;51.810;19.444;2023-02-27T06:09:42;99896.47;;;1.75;67.45
59939;BME280;45801;51.810;19.444;2023-02-27T06:12:09;99901.14;;;1.77;67.43
59939;BME280;45801;51.810;19.444;2023-02-27T06:14:36;99904.38;;;1.80;67.48
59939;BME280;45801;51.810;19.444;2023-02-27T06:17:02;99901.98;;;1.84;67.43
59939;BME280;45801;51.810;19.444;2023-02-27T06:19:30;99901.23;;;1.86;67.31
59939;BME280;45801;51.810;19.444;2023-02-27T06:21:56;99902.54;;;1.85;67.31
59939;BME280;45801;51.810;19.444;2023-02-27T06:24:23;99905.83;;;1.85;67.05
59939;BME280;45801;51.810;19.444;2023-02-27T06:26:50;99906.54;;;1.83;67.43
59939;BME280;45801;51.810;19.444;2023-02-27T06:29:17;99907.95;;;1.86;67.21
59939;BME280;45801;51.810;19.444;2023-02-27T06:31:43;99909.71;;;1.88;67.08
59939;BME280;45801;51.810;19.444;2023-02-27T06:34:10;99910.83;;;1.91;67.22
59939;BME280;45801;51.810;19.444;2023-02-27T06:36:36;99912.64;;;1.86;67.12
59939;BME280;45801;51.810;19.444;2023-02-27T06:39:03;99911.59;;;1.80;67.38
59939;BME280;45801;51.810;19.444;2023-02-27T06:41:30;99912.89;;;1.83;67.43
59939;BME280;45801;51.810;19.444;2023-02-27T06:43:56;99918.74;;;1.85;67.20
59939;BME280;45801;51.810;19.444;2023-02-27T06:46:23;99919.08;;;1.90;67.39
59939;BME280;45801;51.810;19.444;2023-02-27T06:48:50;99924.74;;;1.96;67.17
59939;BME280;45801;51.810;19.444;2023-02-27T06:51:16;99928.66;;;1.99;67.21
59939;BME280;45801;51.810;19.444;2023-02-27T06:54:02;99929.98;;;1.95;67.25
59939;BME280;45801;51.810;19.444;2023-02-27T06:56:29;99929.84;;;1.93;67.38
59939;BME280;45801;51.810;19.444;2023-02-27T06:58:55;99933.85;;;1.97;67.44
59939;BME280;45801;51.810;19.444;2023-02-27T07:01:22;99935.66;;;1.98;67.07
59939;BME280;45801;51.810;19.444;2023-02-27T07:03:50;99939.72;;;1.91;66.99
59939;BME280;45801;51.810;19.444;2023-02-27T07:06:16;99942.92;;;1.88;67.00
59939;BME280;45801;51.810;19.444;2023-02-27T07:08:43;99945.12;;;1.90;67.02
59939;BME280;45801;51.810;19.444;2023-02-27T07:11:09;99946.59;;;1.93;67.29
59939;BME280;45801;51.810;19.444;2023-02-27T07:13:35;99949.15;;;1.92;67.54
59939;BME280;45801;51.810;19.444;2023-02-27T07:16:03;99951.73;;;1.96;67.33
59939;BME280;45801;51.810;19.444;2023-02-27T07:18:29;99949.94;;;2.01;67.18
59939;BME280;45801;51.810;19.444;2023-02-27T07:20:56;99950.54;;;2.04;67.04
59939;BME280;45801;51.810;19.444;2023-02-27T07:23:22;99955.90;;;2.10;67.02
59939;BME280;45801;51.810;19.444;2023-02-27T07:25:49;99960.28;;;2.17;66.79
59939;BME280;45801;51.810;19.444;2023-02-27T07:28:16;99958.98;;;2.18;66.37
59939;BME280;45801;51.810;19.444;2023-02-27T07:30:44;99961.36;;;2.08;66.26
59939;BME280;45801;51.810;19.444;2023-02-27T07:33:11;99964.98;;;2.04;66.47
59939;BME280;45801;51.810;19.444;2023-02-27T07:35:37;99962.39;;;1.98;66.62
59939;BME280;45801;51.810;19.444;2023-02-27T07:38:04;99962.04;;;1.96;66.86
59939;BME280;45801;51.810;19.444;2023-02-27T07:40:30;99965.17;;;2.02;66.93
59939;BME280;45801;51.810;19.444;2023-02-27T07:42:57;99963.41;;;2.09;66.91
59939;BME280;45801;51.810;19.444;2023-02-27T07:45:23;99965.30;;;2.15;66.66
59939;BME280;45801;51.810;19.444;2023-02-27T07:47:49;99967.22;;;2.23;66.82
59939;BME280;45801;51.810;19.444;2023-02-27T07:50:22;99967.00;;;2.28;66.88
59939;BME280;45801;51.810;19.444;2023-02-27T07:52:50;99969.05;;;2.24;66.26
59939;BME280;45801;51.810;19.444;2023-02-27T07:55:17;99975.14;;;2.23;66.69
59939;BME280;45801;51.810;19.444;2023-02-27T07:57:44;99978.61;;;2.31;66.49
59939;BME280;45801;51.810;19.444;2023-02-27T08:00:11;99980.65;;;2.39;66.53
59939;BME280;45801;51.810;19.444;2023-02-27T08:02:38;99985.59;;;2.39;66.04
59939;BME280;45801;51.810;19.444;2023-02-27T08:05:05;99986.95;;;2.41;65.77
59939;BME280;45801;51.810;19.444;2023-02-27T08:07:32;99989.77;;;2.44;65.56
59939;BME280;45801;51.810;19.444;2023-02-27T08:09:58;99989.64;;;2.42;65.84
59939;BME280;45801;51.810;19.444;2023-02-27T08:12:24;99991.33;;;2.46;65.62
59939;BME280;45801;51.810;19.444;2023-02-27T08:14:51;99991.02;;;2.50;65.32
59939;BME280;45801;51.810;19.444;2023-02-27T08:17:18;99990.98;;;2.54;64.56
59939;BME280;45801;51.810;19.444;2023-02-27T08:19:44;99989.77;;;2.60;64.62
59939;BME280;45801;51.810;19.444;2023-02-27T08:22:11;99992.73;;;2.62;64.16
59939;BME280;45801;51.810;19.444;2023-02-27T08:24:37;99997.01;;;2.63;63.62
59939;BME280;45801;51.810;19.444;2023-02-27T08:27:06;100001.38;;;2.68;64.14
59939;BME280;45801;51.810;19.444;2023-02-27T08:29:33;100002.37;;;2.74;63.78
59939;BME280;45801;51.810;19.444;2023-02-27T08:32:00;100004.20;;;2.79;63.24
59939;BME280;45801;51.810;19.444;2023-02-27T08:34:27;100005.80;;;2.79;63.01
59939;BME280;45801;51.810;19.444;2023-02-27T08:36:56;100010.98;;;2.81;62.47
59939;BME280;45801;51.810;19.444;2023-02-27T08:39:23;100010.13;;;2.81;62.75
59939;BME280;45801;51.810;19.444;2023-02-27T08:41:50;100012.24;;;2.80;62.78
59939;BME280;45801;51.810;19.444;2023-02-27T08:44:18;100019.89;;;2.74;62.49
59939;BME280;45801;51.810;19.444;2023-02-27T08:46:45;100020.98;;;2.73;61.85
59939;BME280;45801;51.810;19.444;2023-02-27T08:49:11;100025.88;;;2.71;60.66
59939;BME280;45801;51.810;19.444;2023-02-27T08:51:38;100026.33;;;2.69;59.85
59939;BME280;45801;51.810;19.444;2023-02-27T08:54:04;100028.38;;;2.69;59.51
59939;BME280;45801;51.810;19.444;2023-02-27T08:56:31;100031.90;;;2.73;60.01
59939;BME280;45801;51.810;19.444;2023-02-27T08:59:00;100030.82;;;2.77;58.67
59939;BME280;45801;51.810;19.444;2023-02-27T09:01:27;100033.14;;;2.81;58.76
59939;BME280;45801;51.810;19.444;2023-02-27T09:04:01;100033.09;;;2.89;59.31
59939;BME280;45801;51.810;19.444;2023-02-27T09:06:27;100035.22;;;3.02;59.28
59939;BME280;45801;51.810;19.444;2023-02-27T09:08:56;100035.39;;;3.14;59.14
59939;BME280;45801;51.810;19.444;2023-02-27T09:11:24;100036.95;;;3.26;58.48
59939;BME280;45801;51.810;19.444;2023-02-27T09:13:51;100038.46;;;3.40;58.12
59939;BME280;45801;51.810;19.444;2023-02-27T09:16:19;100039.04;;;3.47;56.53
59939;BME280;45801;51.810;19.444;2023-02-27T09:18:46;100039.00;;;3.44;56.50
59939;BME280;45801;51.810;19.444;2023-02-27T09:21:13;100041.27;;;3.48;56.34
59939;BME280;45801;51.810;19.444;2023-02-27T09:23:39;100045.50;;;3.58;55.79
59939;BME280;45801;51.810;19.444;2023-02-27T09:26:06;100044.00;;;3.63;55.60
59939;BME280;45801;51.810;19.444;2023-02-27T09:28:35;100046.91;;;3.66;54.54
59939;BME280;45801;51.810;19.444;2023-02-27T09:31:04;100048.94;;;3.68;53.64
59939;BME280;45801;51.810;19.444;2023-02-27T09:33:32;100050.55;;;3.68;53.28
59939;BME280;45801;51.810;19.444;2023-02-27T09:35:59;100056.04;;;3.70;52.62
59939;BME280;45801;51.810;19.444;2023-02-27T09:38:26;100055.56;;;3.70;52.43
59939;BME280;45801;51.810;19.444;2023-02-27T09:40:54;100056.22;;;3.64;51.11
59939;BME280;45801;51.810;19.444;2023-02-27T09:43:33;100059.54;;;3.60;52.33
59939;BME280;45801;51.810;19.444;2023-02-27T09:46:01;100065.81;;;3.58;51.31
59939;BME280;45801;51.810;19.444;2023-02-27T09:50:58;100070.86;;;3.57;50.76
59939;BME280;45801;51.810;19.444;2023-02-27T09:53:29;100072.06;;;3.61;51.33
59939;BME280;45801;51.810;19.444;2023-02-27T09:56:12;100068.33;;;3.66;51.49
59939;BME280;45801;51.810;19.444;2023-02-27T10:01:29;100071.44;;;3.97;53.34
59939;BME280;45801;51.810;19.444;2023-02-27T10:04:36;100067.88;;;4.11;52.36
59939;BME280;45801;51.810;19.444;2023-02-27T10:07:27;100070.25;;;4.23;52.08
59939;BME280;45801;51.810;19.444;2023-02-27T10:10:12;100072.34;;;4.38;51.76
59939;BME280;45801;51.810;19.444;2023-02-27T10:13:18;100072.60;;;4.52;50.85
59939;BME280;45801;51.810;19.444;2023-02-27T10:15:52;100077.29;;;4.61;49.82
59939;BME280;45801;51.810;19.444;2023-02-27T10:18:27;100078.54;;;4.61;49.93
59939;BME280;45801;51.810;19.444;2023-02-27T10:21:17;100077.69;;;4.59;49.63
59939;BME280;45801;51.810;19.444;2023-02-27T10:23:56;100079.88;;;4.54;49.17
59939;BME280;45801;51.810;19.444;2023-02-27T10:26:36;100079.09;;;4.48;49.19
59939;BME280;45801;51.810;19.444;2023-02-27T10:29:36;100081.04;;;4.49;49.76
59939;BME280;45801;51.810;19.444;2023-02-27T10:32:24;100081.30;;;4.56;50.44
59939;BME280;45801;51.810;19.444;2023-02-27T10:35:08;100082.13;;;4.58;48.41
59939;BME280;45801;51.810;19.444;2023-02-27T10:37:37;100081.25;;;4.54;47.72
59939;BME280;45801;51.810;19.444;2023-02-27T10:40:13;100080.05;;;4.47;47.91
59939;BME280;45801;51.810;19.444;2023-02-27T10:42:40;100080.92;;;4.38;47.51
59939;BME280;45801;51.810;19.444;2023-02-27T10:45:12;100086.63;;;4.32;48.60
59939;BME280;45801;51.810;19.444;2023-02-27T10:47:41;100085.08;;;4.26;48.97
59939;BME280;45801;51.810;19.444;2023-02-27T10:50:25;100085.35;;;4.21;48.79
59939;BME280;45801;51.810;19.444;2023-02-27T10:52:56;100092.05;;;4.14;49.29
59939;BME280;45801;51.810;19.444;2023-02-27T10:55:29;100095.77;;;4.08;49.03
59939;BME280;45801;51.810;19.444;2023-02-27T10:57:57;100095.51;;;3.97;48.63
59939;BME280;45801;51.810;19.444;2023-02-27T11:00:46;100097.55;;;3.82;48.42
59939;BME280;45801;51.810;19.444;2023-02-27T11:03:21;100100.23;;;3.68;47.78
59939;BME280;45801;51.810;19.444;2023-02-27T11:06:12;100095.80;;;3.54;46.99
59939;BME280;45801;51.810;19.444;2023-02-27T11:11:38;100102.16;;;3.54;48.59
59939;BME280;45801;51.810;19.444;2023-02-27T11:14:28;100097.54;;;3.48;47.13
59939;BME280;45801;51.810;19.444;2023-02-27T11:16:58;100096.00;;;3.46;46.32
59939;BME280;45801;51.810;19.444;2023-02-27T11:22:01;100089.52;;;3.54;45.73
59939;BME280;45801;51.810;19.444;2023-02-27T11:24:29;100084.42;;;3.55;46.42
59939;BME280;45801;51.810;19.444;2023-02-27T11:26:58;100082.78;;;3.64;48.51
59939;BME280;45801;51.810;19.444;2023-02-27T11:29:25;100088.21;;;3.67;47.50
59939;BME280;45801;51.810;19.444;2023-02-27T11:31:59;100084.74;;;3.74;47.85
59939;BME280;45801;51.810;19.444;2023-02-27T11:34:33;100084.01;;;3.83;47.09
59939;BME280;45801;51.810;19.444;2023-02-27T11:37:21;100074.67;;;3.88;45.35
59939;BME280;45801;51.810;19.444;2023-02-27T11:39:51;100067.81;;;3.86;44.56
59939;BME280;45801;51.810;19.444;2023-02-27T11:42:29;100067.44;;;3.88;45.88
59939;BME280;45801;51.810;19.444;2023-02-27T11:45:28;100071.28;;;3.95;46.24
59939;BME280;45801;51.810;19.444;2023-02-27T11:47:57;100072.70;;;3.97;45.39
59939;BME280;45801;51.810;19.444;2023-02-27T11:56:36;100072.36;;;4.02;44.83
59939;BME280;45801;51.810;19.444;2023-02-27T12:01:42;100058.90;;;4.28;44.60
59939;BME280;45801;51.810;19.444;2023-02-27T12:04:50;100058.25;;;4.46;44.03
59939;BME280;45801;51.810;19.444;2023-02-27T12:12:44;100070.32;;;4.47;43.89
59939;BME280;45801;51.810;19.444;2023-02-27T12:21:29;100081.73;;;4.19;44.61
59939;BME280;45801;51.810;19.444;2023-02-27T12:26:45;100085.55;;;4.08;44.84
59939;BME280;45801;51.810;19.444;2023-02-27T12:29:42;100087.84;;;4.09;44.85
59939;BME280;45801;51.810;19.444;2023-02-27T12:32:37;100088.77;;;4.01;43.56
59939;BME280;45801;51.810;19.444;2023-02-27T12:35:01;100081.94;;;3.92;43.38
59939;BME280;45801;51.810;19.444;2023-02-27T12:37:37;100077.12;;;3.99;43.37
59939;BME280;45801;51.810;19.444;2023-02-27T12:40:04;100076.21;;;4.09;43.14
59939;BME280;45801;51.810;19.444;2023-02-27T12:45:21;100071.33;;;4.43;42.87
59939;BME280;45801;51.810;19.444;2023-02-27T12:48:03;100071.39;;;4.80;48.24
59939;BME280;45801;51.810;19.444;2023-02-27T12:50:55;100069.36;;;5.25;42.94
59939;BME280;45801;51.810;19.444;2023-02-27T12:56:18;100073.80;;;4.95;41.13
59939;BME280;45801;51.810;19.444;2023-02-27T13:01:31;100079.70;;;5.04;43.42
59939;BME280;45801;51.810;19.444;2023-02-27T13:04:13;100084.05;;;4.98;42.30
59939;BME280;45801;51.810;19.444;2023-02-27T13:06:55;100086.39;;;4.81;41.64
59939;BME280;45801;51.810;19.444;2023-02-27T13:10:02;100095.95;;;4.59;42.21
59939;BME280;45801;51.810;19.444;2023-02-27T13:12:49;100095.77;;;4.47;43.50
59939;BME280;45801;51.810;19.444;2023-02-27T13:15:28;100101.85;;;4.34;44.56
59939;BME280;45801;51.810;19.444;2023-02-27T13:20:45;100106.48;;;4.12;44.96
59939;BME280;45801;51.810;19.444;2023-02-27T13:26:21;100106.91;;;3.86;46.51
59939;BME280;45801;51.810;19.444;2023-02-27T13:28:51;100109.88;;;3.76;46.95
59939;BME280;45801;51.810;19.444;2023-02-27T13:34:25;100113.05;;;3.66;47.52
59939;BME280;45801;51.810;19.444;2023-02-27T13:37:02;100115.67;;;3.64;47.71
59939;BME280;45801;51.810;19.444;2023-02-27T13:45:03;100118.98;;;3.66;46.36
59939;BME280;45801;51.810;19.444;2023-02-27T13:47:59;100117.23;;;3.64;47.10
59939;BME280;45801;51.810;19.444;2023-02-27T13:52:53;100119.83;;;3.60;46.08
59939;BME280;45801;51.810;19.444;2023-02-27T13:55:31;100118.95;;;3.52;44.75
59939;BME280;45801;51.810;19.444;2023-02-27T13:58:01;100117.77;;;3.40;44.54
59939;BME280;45801;51.810;19.444;2023-02-27T14:00:33;100118.95;;;3.35;45.33
59939;BME280;45801;51.810;19.444;2023-02-27T14:03:07;100116.65;;;3.35;46.33
59939;BME280;45801;51.810;19.444;2023-02-27T14:05:39;100117.20;;;3.39;46.59
59939;BME280;45801;51.810;19.444;2023-02-27T14:10:39;100118.52;;;3.51;46.80
59939;BME280;45801;51.810;19.444;2023-02-27T14:21:58;100126.04;;;3.58;47.15
59939;BME280;45801;51.810;19.444;2023-02-27T14:24:35;100129.84;;;3.53;47.45
59939;BME280;45801;51.810;19.444;2023-02-27T14:27:20;100134.54;;;3.53;47.51
59939;BME280;45801;51.810;19.444;2023-02-27T14:29:51;100134.80;;;3.55;47.31
59939;BME280;45801;51.810;19.444;2023-02-27T14:32:31;100139.11;;;3.50;47.45
59939;BME280;45801;51.810;19.444;2023-02-27T14:34:58;100139.02;;;3.45;47.63
59939;BME280;45801;51.810;19.444;2023-02-27T14:37:26;100138.70;;;3.44;47.23
59939;BME280;45801;51.810;19.444;2023-02-27T14:39:54;100136.91;;;3.43;47.24
59939;BME280;45801;51.810;19.444;2023-02-27T14:42:43;100135.96;;;3.44;47.05
59939;BME280;45801;51.810;19.444;2023-02-27T14:45:16;100139.21;;;3.42;46.43
59939;BME280;45801;51.810;19.444;2023-02-27T14:47:44;100142.77;;;3.43;46.97
59939;BME280;45801;51.810;19.444;2023-02-27T14:50:30;100147.10;;;3.45;47.17
59939;BME280;45801;51.810;19.444;2023-02-27T14:53:00;100147.29;;;3.45;47.29
59939;BME280;45801;51.810;19.444;2023-02-27T14:55:31;100150.71;;;3.46;47.25
59939;BME280;45801;51.810;19.444;2023-02-27T14:58:27;100154.67;;;3.50;47.53
59939;BME280;45801;51.810;19.444;2023-02-27T15:01:04;100156.80;;;3.55;47.32
59939;BME280;45801;51.810;19.444;2023-02-27T15:03:34;100160.48;;;3.56;47.24
59939;BME280;45801;51.810;19.444;2023-02-27T15:06:11;100164.48;;;3.58;47.42
59939;BME280;45801;51.810;19.444;2023-02-27T15:08:40;100165.84;;;3.55;46.61
59939;BME280;45801;51.810;19.444;2023-02-27T15:11:08;100166.17;;;3.53;47.14
59939;BME280;45801;51.810;19.444;2023-02-27T15:13:41;100167.05;;;3.53;47.79
59939;BME280;45801;51.810;19.444;2023-02-27T15:18:52;100165.73;;;3.52;47.97
59939;BME280;45801;51.810;19.444;2023-02-27T15:21:22;100168.08;;;3.55;48.18
59939;BME280;45801;51.810;19.444;2023-02-27T15:23:53;100172.47;;;3.58;47.11
59939;BME280;45801;51.810;19.444;2023-02-27T15:26:20;100173.07;;;3.61;47.89
59939;BME280;45801;51.810;19.444;2023-02-27T15:28:47;100172.98;;;3.64;48.23
59939;BME280;45801;51.810;19.444;2023-02-27T15:31:22;100173.23;;;3.65;48.29
59939;BME280;45801;51.810;19.444;2023-02-27T15:33:50;100178.69;;;3.64;47.84